Carnival Spirit — 9HA3097 — position and weather

sailwx.info

Track history (hours):
 
Tides and Currents Weather Stations Pressure Air Temp Water Temp Dewpoint Dewpoint Depression Visibility Wind Speed Wind Dir Waves Ship Positions

Carnival Spirit

Last reported at 2017-Apr-24 19:22 UTC. Time now 2017-Apr-25 02:52 UTC.
Position S 33°50' E 151°19'.

Length 293 m; draft 8.2 m.

Type: Ship. MMSI: 229136000.

Date/timePositionNaut miles runAvg speedWind from/ knotsBaromVisibWave heightAir tempDewpointWater temp
2017-Apr-24 19:22S 33°50' E 151°19'411.9
2017-Apr-24 19:00S 33°49' E 151°24'510.9
2017-Apr-24 18:30S 33°45' E 151°29'611.8
2017-Apr-24 18:00S 33°41' E 151°34'510.9
2017-Apr-24 17:30S 33°37' E 151°39'2612.8
2017-Apr-24 15:28S 33°19' E 152°01'714.4
2017-Apr-24 15:00S 33°14' E 152°06'817.2
2017-Apr-24 14:30S 33°09' E 152°14'1716.6
2017-Apr-24 13:30S 32°57' E 152°28'816.7
2017-Apr-24 13:00S 32°51' E 152°35'816.6
2017-Apr-24 12:30S 32°45' E 152°42'816.2
2017-Apr-24 12:00S 32°40' E 152°49'93017.9
2017-Apr-22 08:04S 22°31' E 166°03'519.6
2017-Apr-22 07:48S 22°28' E 166°07'619.4
2017-Apr-22 07:30S 22°24' E 166°12'916.8
2017-Apr-22 07:00S 22°18' E 166°18'713.4
2017-Apr-22 06:30S 22°15' E 166°24'2 3.4
2017-Apr-22 05:59S 22°16' E 166°26'0 0.0
2017-Apr-22 05:29S 22°16' E 166°26'0 0.0
2017-Apr-22 04:59S 22°16' E 166°26'0 0.0
2017-Apr-22 04:29S 22°16' E 166°26'0 0.0
2017-Apr-22 03:59S 22°16' E 166°26'0 0.0
2017-Apr-22 03:29S 22°16' E 166°26'0 0.0
2017-Apr-22 02:59S 22°16' E 166°26'0 0.0
2017-Apr-22 02:29S 22°16' E 166°26'0 0.0
2017-Apr-22 01:59S 22°16' E 166°26'0 0.0
2017-Apr-22 01:29S 22°16' E 166°26'0 0.0
2017-Apr-22 00:59S 22°16' E 166°26'0 0.0
2017-Apr-22 00:29S 22°16' E 166°26'0 0.0
2017-Apr-21 23:59S 22°16' E 166°26'0 0.0
2017-Apr-21 23:29S 22°16' E 166°26'0 0.0
2017-Apr-21 22:59S 22°16' E 166°26'0 0.0
2017-Apr-21 22:30S 22°16' E 166°26'0 0.0
2017-Apr-21 22:00S 22°16' E 166°26'0 0.0
2017-Apr-21 21:30S 22°16' E 166°26'0 0.0
2017-Apr-21 21:00S 22°16' E 166°26'0 0.4
2017-Apr-21 20:30S 22°16' E 166°26'4 8.1
2017-Apr-21 20:01S 22°16' E 166°22'816.2
2017-Apr-21 19:30S 22°22' E 166°15'714.6
2017-Apr-21 19:00S 22°27' E 166°10'510.0
2017-Apr-21 18:31S 22°31' E 166°11'5 9.8
2017-Apr-21 18:00S 22°35' E 166°14'611.6
2017-Apr-21 17:30S 22°39' E 166°19'38 0.8
2017-Apr-19 19:06S 22°28' E 166°58'1215.0
2017-Apr-19 18:19S 22°24' E 166°46'516.7
2017-Apr-19 17:59S 22°24' E 166°40'816.6
2017-Apr-19 17:30S 22°28' E 166°32'815.0
2017-Apr-19 17:00S 22°31' E 166°25'713.2
2017-Apr-19 16:30S 22°35' E 166°19'713.4
2017-Apr-19 16:00S 22°40' E 166°14'92418.8
2017-Apr-17 14:51S 32°41' E 153°02'1219.2
2017-Apr-17 14:15S 32°49' E 152°52'1419.2
2017-Apr-17 13:30S 32°57' E 152°38'1119.4
2017-Apr-17 12:57S 33°04' E 152°28'919.4
2017-Apr-17 12:30S 33°09' E 152°20'1019.4
2017-Apr-17 12:00S 33°15' E 152°10'3618.7
2017-Apr-17 10:05S 33°39' E 151°38'217.6
2017-Apr-17 10:00S 33°40' E 151°37'917.5
2017-Apr-17 09:30S 33°46' E 151°29'916.8
2017-Apr-17 09:00S 33°52' E 151°22'63 2.7
2017-Apr-16 09:23S 33°18' E 152°26'4 9.7
2017-Apr-16 09:00S 33°14' E 152°26'5 9.8
2017-Apr-16 08:30S 33°09' E 152°25'510.0
2017-Apr-16 08:00S 33°04' E 152°25'5 9.4
2017-Apr-16 07:31S 32°60' E 152°26'5 9.7
2017-Apr-16 07:00S 32°57' E 152°31'510.0
2017-Apr-16 06:30S 32°53' E 152°35'510.0
2017-Apr-16 06:01S 32°50' E 152°39'510.4
2017-Apr-16 05:31S 32°46' E 152°43'510.6
2017-Apr-16 05:01S 32°42' E 152°48'510.4
2017-Apr-16 04:31S 32°38' E 152°52'611.1
2017-Apr-16 03:57S 32°32' E 152°54'27 0.9
2017-Apr-14 21:18S 32°08' E 153°08'4 8.1
2017-Apr-14 20:52S 32°11' E 153°07'  
Track history (hours):
 
Tides and Currents Weather Stations Pressure Air Temp Water Temp Dewpoint Dewpoint Depression Visibility Wind Speed Wind Dir Waves Ship Positions

Carnival Spirit

Last reported at 2017-Apr-24 19:22 UTC. Time now 2017-Apr-25 02:52 UTC.
Position S 33°50' E 151°19'.

Length 293 m; draft 8.2 m.

Type: Ship. MMSI: 229136000.

Date/timePositionNaut miles runAvg speedWind from/ knotsBaromVisibWave heightAir tempDewpointWater temp
2017-Apr-24 19:22S 33°50' E 151°19'411.9
2017-Apr-24 19:00S 33°49' E 151°24'510.9
2017-Apr-24 18:30S 33°45' E 151°29'611.8
2017-Apr-24 18:00S 33°41' E 151°34'510.9
2017-Apr-24 17:30S 33°37' E 151°39'2612.8
2017-Apr-24 15:28S 33°19' E 152°01'714.4
2017-Apr-24 15:00S 33°14' E 152°06'817.2
2017-Apr-24 14:30S 33°09' E 152°14'1716.6
2017-Apr-24 13:30S 32°57' E 152°28'816.7
2017-Apr-24 13:00S 32°51' E 152°35'816.6
2017-Apr-24 12:30S 32°45' E 152°42'816.2
2017-Apr-24 12:00S 32°40' E 152°49'93017.9
2017-Apr-22 08:04S 22°31' E 166°03'519.6
2017-Apr-22 07:48S 22°28' E 166°07'619.4
2017-Apr-22 07:30S 22°24' E 166°12'916.8
2017-Apr-22 07:00S 22°18' E 166°18'713.4
2017-Apr-22 06:30S 22°15' E 166°24'2 3.4
2017-Apr-22 05:59S 22°16' E 166°26'0 0.0
2017-Apr-22 05:29S 22°16' E 166°26'0 0.0
2017-Apr-22 04:59S 22°16' E 166°26'0 0.0
2017-Apr-22 04:29S 22°16' E 166°26'0 0.0
2017-Apr-22 03:59S 22°16' E 166°26'0 0.0
2017-Apr-22 03:29S 22°16' E 166°26'0 0.0
2017-Apr-22 02:59S 22°16' E 166°26'0 0.0
2017-Apr-22 02:29S 22°16' E 166°26'0 0.0
2017-Apr-22 01:59S 22°16' E 166°26'0 0.0
2017-Apr-22 01:29S 22°16' E 166°26'0 0.0
2017-Apr-22 00:59S 22°16' E 166°26'0 0.0
2017-Apr-22 00:29S 22°16' E 166°26'0 0.0
2017-Apr-21 23:59S 22°16' E 166°26'0 0.0
2017-Apr-21 23:29S 22°16' E 166°26'0 0.0
2017-Apr-21 22:59S 22°16' E 166°26'0 0.0
2017-Apr-21 22:30S 22°16' E 166°26'0 0.0
2017-Apr-21 22:00S 22°16' E 166°26'0 0.0
2017-Apr-21 21:30S 22°16' E 166°26'0 0.0
2017-Apr-21 21:00S 22°16' E 166°26'0 0.4
2017-Apr-21 20:30S 22°16' E 166°26'4 8.1
2017-Apr-21 20:01S 22°16' E 166°22'816.2
2017-Apr-21 19:30S 22°22' E 166°15'714.6
2017-Apr-21 19:00S 22°27' E 166°10'510.0
2017-Apr-21 18:31S 22°31' E 166°11'5 9.8
2017-Apr-21 18:00S 22°35' E 166°14'611.6
2017-Apr-21 17:30S 22°39' E 166°19'38 0.8
2017-Apr-19 19:06S 22°28' E 166°58'1215.0
2017-Apr-19 18:19S 22°24' E 166°46'516.7
2017-Apr-19 17:59S 22°24' E 166°40'816.6
2017-Apr-19 17:30S 22°28' E 166°32'815.0
2017-Apr-19 17:00S 22°31' E 166°25'713.2
2017-Apr-19 16:30S 22°35' E 166°19'713.4
2017-Apr-19 16:00S 22°40' E 166°14'92418.8
2017-Apr-17 14:51S 32°41' E 153°02'1219.2
2017-Apr-17 14:15S 32°49' E 152°52'1419.2
2017-Apr-17 13:30S 32°57' E 152°38'1119.4
2017-Apr-17 12:57S 33°04' E 152°28'919.4
2017-Apr-17 12:30S 33°09' E 152°20'1019.4
2017-Apr-17 12:00S 33°15' E 152°10'3618.7
2017-Apr-17 10:05S 33°39' E 151°38'217.6
2017-Apr-17 10:00S 33°40' E 151°37'917.5
2017-Apr-17 09:30S 33°46' E 151°29'916.8
2017-Apr-17 09:00S 33°52' E 151°22'63 2.7
2017-Apr-16 09:23S 33°18' E 152°26'4 9.7
2017-Apr-16 09:00S 33°14' E 152°26'5 9.8
2017-Apr-16 08:30S 33°09' E 152°25'510.0
2017-Apr-16 08:00S 33°04' E 152°25'5 9.4
2017-Apr-16 07:31S 32°60' E 152°26'5 9.7
2017-Apr-16 07:00S 32°57' E 152°31'510.0
2017-Apr-16 06:30S 32°53' E 152°35'510.0
2017-Apr-16 06:01S 32°50' E 152°39'510.4
2017-Apr-16 05:31S 32°46' E 152°43'510.6
2017-Apr-16 05:01S 32°42' E 152°48'510.4
2017-Apr-16 04:31S 32°38' E 152°52'611.1
2017-Apr-16 03:57S 32°32' E 152°54'27 0.9
2017-Apr-14 21:18S 32°08' E 153°08'4 8.1
2017-Apr-14 20:52S 32°11' E 153°07'  

Dump ship's entire track history